Time,TemperatureF,DewpointF,PressureIn,WindDirection,WindDirectionDegrees,WindSpeedMPH,WindSpeedGustMPH,Humidity,HourlyPrecipIn,Conditions,Clouds,dailyrainin,SoftwareType,DateUTC
2013-02-06 00:02:00,20.0,17.0,-100.00,WNW,290,8.0,11.0,89,-99.99,,,-99.99,,2013-02-06 05:02:00,
2013-02-06 00:22:00,20.0,17.0,-100.00,WNW,300,9.0,11.0,89,-99.99,,,-99.99,,2013-02-06 05:22:00,
2013-02-06 00:32:00,20.0,17.0,-100.00,WNW,300,11.0,14.0,88,-99.99,,,-99.99,,2013-02-06 05:32:00,
2013-02-06 00:53:00,19.0,15.0,-100.00,North,355,10.0,13.0,86,-99.99,,,-99.99,,2013-02-06 05:53:00,
2013-02-06 01:01:00,17.0,14.0,-100.00,North,355,12.0,19.0,86,-99.99,,,-99.99,,2013-02-06 06:01:00,
2013-02-06 01:11:00,17.0,14.0,-100.00,North,355,12.0,19.0,86,-99.99,,,-99.99,,2013-02-06 06:11:00,
2013-02-06 01:22:00,17.0,14.0,-100.00,North,350,9.0,14.0,88,-99.99,,,-99.99,,2013-02-06 06:22:00,
2013-02-06 01:32:00,16.0,14.0,-100.00,North,350,9.0,13.0,89,-99.99,,,-99.99,,2013-02-06 06:32:00,
2013-02-06 01:51:00,16.0,14.0,-100.00,North,350,7.0,11.0,89,-99.99,,,-99.99,,2013-02-06 06:51:00,
2013-02-06 02:02:00,15.0,13.0,-100.00,North,355,9.0,13.0,89,-99.99,,,-99.99,,2013-02-06 07:02:00,
2013-02-06 02:11:00,15.0,13.0,-100.00,North,355,9.0,13.0,89,-99.99,,,-99.99,,2013-02-06 07:11:00,
2013-02-06 02:22:00,14.0,11.0,-100.00,NNW,335,9.0,12.0,88,-99.99,,,-99.99,,2013-02-06 07:22:00,
2013-02-06 02:32:00,12.0,10.0,-100.00,NNW,340,9.0,10.0,88,-99.99,,,-99.99,,2013-02-06 07:32:00,
2013-02-06 02:42:00,12.0,10.0,-100.00,NNW,340,9.0,10.0,88,-99.99,,,-99.99,,2013-02-06 07:42:00,
2013-02-06 02:52:00,12.0,9.0,-100.00,NNW,345,8.0,10.0,88,-99.99,,,-99.99,,2013-02-06 07:52:00,
2013-02-06 03:01:00,12.0,9.0,-100.00,NNW,345,8.0,11.0,87,-99.99,,,-99.99,,2013-02-06 08:01:00,
2013-02-06 03:11:00,12.0,9.0,-100.00,NNW,345,8.0,11.0,87,-99.99,,,-99.99,,2013-02-06 08:11:00,
2013-02-06 03:21:00,11.0,8.0,-100.00,NNW,345,4.0,7.0,87,-99.99,,,-99.99,,2013-02-06 08:21:00,
2013-02-06 03:32:00,9.0,5.0,-100.00,North,350,3.0,5.0,86,-99.99,,,-99.99,,2013-02-06 08:32:00,
2013-02-06 03:42:00,9.0,5.0,-100.00,North,350,3.0,5.0,86,-99.99,,,-99.99,,2013-02-06 08:42:00,
2013-02-06 03:53:00,7.0,4.0,-100.00,NNE,20,3.0,4.0,87,-99.99,,,-99.99,,2013-02-06 08:53:00,
2013-02-06 04:02:00,7.0,4.0,-100.00,NE,40,4.0,6.0,87,-99.99,,,-99.99,,2013-02-06 09:02:00,
2013-02-06 04:11:00,7.0,4.0,-100.00,NE,40,4.0,6.0,87,-99.99,,,-99.99,,2013-02-06 09:11:00,
2013-02-06 04:22:00,7.0,4.0,-100.00,ENE,70,3.0,4.0,87,-99.99,,,-99.99,,2013-02-06 09:22:00,
2013-02-06 04:32:00,1.0,-3.0,-100.00,ESE,110,4.0,4.0,83,-99.99,,,-99.99,,2013-02-06 09:32:00,
2013-02-06 04:42:00,1.0,-3.0,-100.00,ESE,110,4.0,4.0,83,-99.99,,,-99.99,,2013-02-06 09:42:00,
2013-02-06 04:52:00,3.0,0.0,-100.00,ENE,60,4.0,5.0,85,-99.99,,,-99.99,,2013-02-06 09:52:00,
2013-02-06 05:01:00,5.0,2.0,-100.00,NE,45,4.0,6.0,86,-99.99,,,-99.99,,2013-02-06 10:01:00,
2013-02-06 05:11:00,5.0,2.0,-100.00,NE,45,4.0,6.0,86,-99.99,,,-99.99,,2013-02-06 10:11:00,
2013-02-06 05:22:00,-1.0,-5.0,-100.00,ENE,65,2.0,4.0,81,-99.99,,,-99.99,,2013-02-06 10:22:00,
2013-02-06 05:32:00,-5.0,-10.0,-100.00,ESE,120,2.0,3.0,81,-99.99,,,-99.99,,2013-02-06 10:32:00,
2013-02-06 05:52:00,0.0,-4.0,-100.00,SSE,150,1.0,2.0,83,-99.99,,,-99.99,,2013-02-06 10:52:00,
2013-02-06 06:02:00,-2.0,-6.0,-100.00,South,180,2.0,3.0,81,-99.99,,,-99.99,,2013-02-06 11:02:00,
2013-02-06 06:11:00,-2.0,-6.0,-100.00,South,180,2.0,3.0,81,-99.99,,,-99.99,,2013-02-06 11:11:00,
2013-02-06 06:22:00,-3.0,-7.0,-100.00,South,175,2.0,2.0,82,-99.99,,,-99.99,,2013-02-06 11:22:00,
2013-02-06 06:32:00,-3.0,-8.0,-100.00,South,170,2.0,4.0,81,-99.99,,,-99.99,,2013-02-06 11:32:00,
2013-02-06 06:42:00,-3.0,-8.0,-100.00,South,170,2.0,4.0,81,-99.99,,,-99.99,,2013-02-06 11:42:00,
2013-02-06 06:52:00,-4.0,-8.0,-100.00,SE,135,1.0,4.0,81,-99.99,,,-99.99,,2013-02-06 11:52:00,
2013-02-06 07:02:00,-7.0,-11.0,-100.00,ESE,105,1.0,3.0,80,-99.99,,,-99.99,,2013-02-06 12:02:00,
2013-02-06 07:22:00,-8.0,-12.0,-100.00,East,95,4.0,4.0,80,-99.99,,,-99.99,,2013-02-06 12:22:00,
2013-02-06 07:32:00,-9.0,-14.0,-100.00,East,95,4.0,4.0,79,-99.99,,,-99.99,,2013-02-06 12:32:00,
2013-02-06 07:52:00,-9.0,-13.0,-100.00,ESE,105,4.0,5.0,80,-99.99,,,-99.99,,2013-02-06 12:52:00,
2013-02-06 08:02:00,-9.0,-13.0,-100.00,East,90,4.0,4.0,80,-99.99,,,-99.99,,2013-02-06 13:02:00,
2013-02-06 09:32:00,5.0,1.0,-100.00,East,100,6.0,8.0,85,-99.99,,,-99.99,,2013-02-06 14:32:00,
2013-02-06 09:42:00,5.0,1.0,-100.00,East,100,6.0,8.0,85,-99.99,,,-99.99,,2013-02-06 14:42:00,
2013-02-06 09:52:00,5.0,1.0,-100.00,ESE,105,8.0,8.0,85,-99.99,,,-99.99,,2013-02-06 14:52:00,
2013-02-06 10:02:00,6.0,3.0,-100.00,ESE,105,7.0,8.0,86,-99.99,,,-99.99,,2013-02-06 15:02:00,
2013-02-06 10:11:00,6.0,3.0,-100.00,ESE,105,7.0,8.0,86,-99.99,,,-99.99,,2013-02-06 15:11:00,
2013-02-06 10:21:00,6.0,3.0,-100.00,SE,125,9.0,10.0,86,-99.99,,,-99.99,,2013-02-06 15:21:00,
2013-02-06 10:32:00,7.0,4.0,-100.00,East,95,8.0,11.0,86,-99.99,,,-99.99,,2013-02-06 15:32:00,
2013-02-06 10:42:00,7.0,4.0,-100.00,East,95,8.0,11.0,86,-99.99,,,-99.99,,2013-02-06 15:42:00,
2013-02-06 10:52:00,7.0,4.0,-100.00,East,90,8.0,11.0,86,-99.99,,,-99.99,,2013-02-06 15:52:00,
2013-02-06 11:01:00,8.0,5.0,-100.00,East,90,10.0,12.0,86,-99.99,,,-99.99,,2013-02-06 16:01:00,
2013-02-06 11:11:00,8.0,5.0,-100.00,East,90,10.0,12.0,86,-99.99,,,-99.99,,2013-02-06 16:11:00,
2013-02-06 11:22:00,9.0,6.0,-100.00,East,100,11.0,13.0,85,-99.99,,,-99.99,,2013-02-06 16:22:00,
2013-02-06 11:32:00,10.0,6.0,-100.00,East,100,11.0,14.0,84,-99.99,,,-99.99,,2013-02-06 16:32:00,
2013-02-06 11:42:00,10.0,6.0,-100.00,East,100,11.0,14.0,84,-99.99,,,-99.99,,2013-02-06 16:42:00,
2013-02-06 11:52:00,13.0,7.0,-100.00,East,95,8.0,10.0,79,-99.99,,,-99.99,,2013-02-06 16:52:00,
2013-02-06 12:02:00,13.0,7.0,-100.00,East,95,8.0,10.0,79,-99.99,,,-99.99,,2013-02-06 17:02:00,
2013-02-06 12:12:00,13.0,7.0,-100.00,East,95,8.0,10.0,79,-99.99,,,-99.99,,2013-02-06 17:12:00,
2013-02-06 12:22:00,13.0,7.0,-100.00,East,100,9.0,11.0,76,-99.99,,,-99.99,,2013-02-06 17:22:00,
2013-02-06 12:32:00,15.0,8.0,-100.00,East,95,10.0,11.0,75,-99.99,,,-99.99,,2013-02-06 17:32:00,
2013-02-06 12:42:00,15.0,8.0,-100.00,East,95,10.0,11.0,75,-99.99,,,-99.99,,2013-02-06 17:42:00,
2013-02-06 12:52:00,17.0,9.0,-100.00,East,95,9.0,11.0,72,-99.99,,,-99.99,,2013-02-06 17:52:00,
2013-02-06 13:02:00,17.0,8.0,-100.00,East,85,10.0,11.0,68,-99.99,,,-99.99,,2013-02-06 18:02:00,
2013-02-06 13:12:00,17.0,8.0,-100.00,East,85,10.0,11.0,68,-99.99,,,-99.99,,2013-02-06 18:12:00,
2013-02-06 13:23:00,18.0,9.0,-100.00,East,85,10.0,11.0,65,-99.99,,,-99.99,,2013-02-06 18:23:00,
2013-02-06 13:33:00,17.0,9.0,-100.00,East,85,9.0,11.0,71,-99.99,,,-99.99,,2013-02-06 18:33:00,
2013-02-06 13:42:00,17.0,9.0,-100.00,East,85,9.0,11.0,71,-99.99,,,-99.99,,2013-02-06 18:42:00,
2013-02-06 13:52:00,18.0,10.0,-100.00,East,90,9.0,11.0,71,-99.99,,,-99.99,,2013-02-06 18:52:00,
2013-02-06 14:02:00,18.0,10.0,-100.00,East,90,9.0,10.0,72,-99.99,,,-99.99,,2013-02-06 19:02:00,
2013-02-06 14:11:00,18.0,10.0,-100.00,East,90,9.0,10.0,72,-99.99,,,-99.99,,2013-02-06 19:11:00,
2013-02-06 14:22:00,18.0,11.0,-100.00,East,95,9.0,10.0,72,-99.99,,,-99.99,,2013-02-06 19:22:00,
2013-02-06 14:32:00,19.0,11.0,-100.00,East,100,10.0,11.0,71,-99.99,,,-99.99,,2013-02-06 19:32:00,
2013-02-06 14:42:00,19.0,11.0,-100.00,East,100,10.0,11.0,71,-99.99,,,-99.99,,2013-02-06 19:42:00,
2013-02-06 14:50:00,19.0,12.0,-100.00,ESE,110,11.0,12.0,75,-99.99,,,-99.99,,2013-02-06 19:50:00,
2013-02-06 14:52:00,19.0,12.0,-100.00,East,100,11.0,11.0,73,-99.99,,,-99.99,,2013-02-06 19:52:00,
2013-02-06 15:01:00,19.0,12.0,-100.00,East,100,9.0,11.0,74,-99.99,,,-99.99,,2013-02-06 20:01:00,
2013-02-06 15:11:00,19.0,12.0,-100.00,East,100,9.0,11.0,74,-99.99,,,-99.99,,2013-02-06 20:11:00,
2013-02-06 15:21:00,19.0,12.0,-100.00,East,95,11.0,11.0,74,-99.99,,,-99.99,,2013-02-06 20:21:00,
2013-02-06 15:32:00,19.0,12.0,-100.00,ESE,110,11.0,12.0,75,-99.99,,,-99.99,,2013-02-06 20:32:00,
2013-02-06 15:42:00,19.0,12.0,-100.00,ESE,110,11.0,12.0,75,-99.99,,,-99.99,,2013-02-06 20:42:00,
2013-02-06 16:02:00,18.0,13.0,-100.00,East,95,11.0,13.0,78,-99.99,,,-99.99,,2013-02-06 21:02:00,
2013-02-06 16:11:00,18.0,13.0,-100.00,East,95,11.0,13.0,78,-99.99,,,-99.99,,2013-02-06 21:11:00,
2013-02-06 16:21:00,18.0,13.0,-100.00,East,85,11.0,12.0,79,-99.99,,,-99.99,,2013-02-06 21:21:00,
2013-02-06 16:32:00,19.0,13.0,-100.00,East,90,11.0,13.0,79,-99.99,,,-99.99,,2013-02-06 21:32:00,
2013-02-06 16:42:00,19.0,13.0,-100.00,East,90,11.0,13.0,79,-99.99,,,-99.99,,2013-02-06 21:42:00,
2013-02-06 16:51:00,18.0,13.0,-100.00,East,85,9.0,13.0,79,-99.99,,,-99.99,,2013-02-06 21:51:00,
2013-02-06 17:01:00,18.0,12.0,-100.00,East,80,9.0,12.0,79,-99.99,,,-99.99,,2013-02-06 22:01:00,
2013-02-06 17:11:00,18.0,12.0,-100.00,East,80,9.0,12.0,79,-99.99,,,-99.99,,2013-02-06 22:11:00,
2013-02-06 17:22:00,17.0,12.0,-100.00,East,95,10.0,11.0,79,-99.99,,,-99.99,,2013-02-06 22:22:00,
2013-02-06 17:32:00,17.0,12.0,-100.00,ESE,105,9.0,10.0,80,-99.99,,,-99.99,,2013-02-06 22:32:00,
2013-02-06 17:42:00,17.0,12.0,-100.00,ESE,105,9.0,10.0,80,-99.99,,,-99.99,,2013-02-06 22:42:00,
2013-02-06 17:52:00,17.0,12.0,-100.00,East,100,9.0,11.0,80,-99.99,,,-99.99,,2013-02-06 22:52:00,
2013-02-06 18:01:00,17.0,12.0,-100.00,East,95,10.0,11.0,81,-99.99,,,-99.99,,2013-02-06 23:01:00,
2013-02-06 18:11:00,17.0,12.0,-100.00,East,95,10.0,11.0,81,-99.99,,,-99.99,,2013-02-06 23:11:00,
2013-02-06 18:21:00,16.0,12.0,-100.00,East,90,9.0,11.0,82,-99.99,,,-99.99,,2013-02-06 23:21:00,
2013-02-06 18:32:00,16.0,11.0,-100.00,East,90,9.0,11.0,83,-99.99,,,-99.99,,2013-02-06 23:32:00,
2013-02-06 18:42:00,16.0,11.0,-100.00,East,90,9.0,11.0,83,-99.99,,,-99.99,,2013-02-06 23:42:00,
2013-02-06 18:52:00,15.0,11.0,-100.00,East,90,9.0,9.0,83,-99.99,,,-99.99,,2013-02-06 23:52:00,
2013-02-06 19:02:00,15.0,11.0,-100.00,East,90,9.0,11.0,83,-99.99,,,-99.99,,2013-02-07 00:02:00,
2013-02-06 19:11:00,15.0,11.0,-100.00,East,90,9.0,11.0,83,-99.99,,,-99.99,,2013-02-07 00:11:00,
2013-02-06 19:22:00,15.0,11.0,-100.00,East,90,9.0,11.0,84,-99.99,,,-99.99,,2013-02-07 00:22:00,
2013-02-06 19:32:00,15.0,11.0,-100.00,ESE,105,10.0,11.0,84,-99.99,,,-99.99,,2013-02-07 00:32:00,
2013-02-06 19:42:00,15.0,11.0,-100.00,ESE,105,10.0,11.0,84,-99.99,,,-99.99,,2013-02-07 00:42:00,
2013-02-06 19:52:00,15.0,11.0,-100.00,East,100,11.0,12.0,83,-99.99,,,-99.99,,2013-02-07 00:52:00,
2013-02-06 20:01:00,15.0,11.0,-100.00,East,100,11.0,14.0,84,-99.99,,,-99.99,,2013-02-07 01:01:00,
2013-02-06 20:11:00,15.0,11.0,-100.00,East,100,11.0,14.0,84,-99.99,,,-99.99,,2013-02-07 01:11:00,
2013-02-06 20:21:00,14.0,10.0,-100.00,East,100,11.0,14.0,84,-99.99,,,-99.99,,2013-02-07 01:21:00,
2013-02-06 20:32:00,14.0,10.0,-100.00,East,95,10.0,13.0,84,-99.99,,,-99.99,,2013-02-07 01:32:00,
2013-02-06 20:42:00,14.0,10.0,-100.00,East,95,10.0,13.0,84,-99.99,,,-99.99,,2013-02-07 01:42:00,
2013-02-06 20:50:00,14.0,11.0,-100.00,East,85,10.0,12.0,85,-99.99,,,-99.99,,2013-02-07 01:50:00,
2013-02-06 20:52:00,14.0,11.0,-100.00,East,95,7.0,9.0,85,-99.99,,,-99.99,,2013-02-07 01:52:00,
2013-02-06 21:02:00,14.0,11.0,-100.00,East,95,7.0,9.0,85,-99.99,,,-99.99,,2013-02-07 02:02:00,
2013-02-06 21:12:00,14.0,11.0,-100.00,East,95,7.0,9.0,85,-99.99,,,-99.99,,2013-02-07 02:12:00,
2013-02-06 21:21:00,14.0,11.0,-100.00,East,95,9.0,11.0,85,-99.99,,,-99.99,,2013-02-07 02:21:00,
2013-02-06 21:32:00,14.0,11.0,-100.00,East,85,10.0,12.0,85,-99.99,,,-99.99,,2013-02-07 02:32:00,
2013-02-06 21:42:00,14.0,11.0,-100.00,East,85,10.0,12.0,85,-99.99,,,-99.99,,2013-02-07 02:42:00,
2013-02-06 22:02:00,14.0,11.0,-100.00,East,95,11.0,13.0,87,-99.99,,,-99.99,,2013-02-07 03:02:00,
2013-02-06 22:11:00,14.0,11.0,-100.00,East,95,11.0,13.0,87,-99.99,,,-99.99,,2013-02-07 03:11:00,
2013-02-06 22:21:00,14.0,11.0,-100.00,East,95,10.0,11.0,87,-99.99,,,-99.99,,2013-02-07 03:21:00,
2013-02-06 22:32:00,14.0,11.0,-100.00,East,85,7.0,11.0,87,-99.99,,,-99.99,,2013-02-07 03:32:00,
2013-02-06 22:42:00,14.0,11.0,-100.00,East,85,7.0,11.0,87,-99.99,,,-99.99,,2013-02-07 03:42:00,
2013-02-06 22:52:00,15.0,12.0,-100.00,East,90,11.0,11.0,88,-99.99,,,-99.99,,2013-02-07 03:52:00,
2013-02-06 23:01:00,15.0,12.0,-100.00,East,90,9.0,11.0,88,-99.99,,,-99.99,,2013-02-07 04:01:00,
2013-02-06 23:11:00,15.0,12.0,-100.00,East,90,9.0,11.0,88,-99.99,,,-99.99,,2013-02-07 04:11:00,
2013-02-06 23:22:00,15.0,12.0,-100.00,East,85,10.0,12.0,88,-99.99,,,-99.99,,2013-02-07 04:22:00,
2013-02-06 23:32:00,15.0,12.0,-100.00,East,90,12.0,14.0,89,-99.99,,,-99.99,,2013-02-07 04:32:00,
2013-02-06 23:42:00,15.0,12.0,-100.00,East,90,12.0,14.0,89,-99.99,,,-99.99,,2013-02-07 04:42:00,
2013-02-06 23:53:00,15.0,12.0,-100.00,East,85,11.0,15.0,89,-99.99,,,-99.99,,2013-02-07 04:53:00,